createdAt,value
2022-08-02T00:00:40.760Z,18.30
2022-08-02T00:03:08.889Z,18.30
2022-08-02T00:05:37.250Z,18.30
2022-08-02T00:08:05.904Z,18.30
2022-08-02T00:10:35.197Z,18.20
2022-08-02T00:13:03.226Z,18.20
2022-08-02T00:15:31.287Z,18.20
2022-08-02T00:17:59.317Z,18.10
2022-08-02T00:20:27.255Z,18.10
2022-08-02T00:22:55.167Z,18.10
2022-08-02T00:25:23.296Z,18.00
2022-08-02T00:27:52.594Z,18.00
2022-08-02T00:30:20.653Z,18.00
2022-08-02T00:32:48.581Z,18.00
2022-08-02T00:35:16.577Z,17.90
2022-08-02T00:37:44.589Z,17.90
2022-08-02T00:40:13.513Z,17.90
2022-08-02T00:42:44.056Z,17.90
2022-08-02T00:45:13.469Z,17.80
2022-08-02T00:47:41.427Z,17.80
2022-08-02T00:50:10.688Z,17.70
2022-08-02T00:52:38.639Z,17.70
2022-08-02T00:55:07.722Z,17.70
2022-08-02T00:57:36.979Z,17.60
2022-08-02T01:00:07.469Z,17.60
2022-08-02T01:02:36.801Z,17.60
2022-08-02T01:05:05.601Z,17.50
2022-08-02T01:07:33.846Z,17.50
2022-08-02T01:10:01.911Z,17.50
2022-08-02T01:12:30.131Z,17.50
2022-08-02T01:15:02.448Z,17.40
2022-08-02T01:17:39.578Z,17.40
2022-08-02T01:20:42.644Z,17.40
2022-08-02T01:23:34.005Z,17.30
2022-08-02T01:26:27.135Z,17.30
2022-08-02T01:29:05.084Z,17.30
2022-08-02T01:31:41.599Z,17.20
2022-08-02T01:34:19.609Z,17.20
2022-08-02T01:37:00.945Z,17.20
2022-08-02T01:39:34.587Z,17.10
2022-08-02T01:42:05.354Z,17.10
2022-08-02T01:44:39.476Z,17.10
2022-08-02T01:47:14.808Z,17.10
2022-08-02T01:49:47.406Z,17.10
2022-08-02T01:52:23.633Z,17.00
2022-08-02T01:54:57.709Z,17.00
2022-08-02T01:57:31.616Z,17.00
2022-08-02T02:00:01.867Z,17.00
2022-08-02T02:02:33.034Z,16.90
2022-08-02T02:05:06.618Z,16.90
2022-08-02T02:07:37.210Z,16.90
2022-08-02T02:10:07.422Z,16.90
2022-08-02T02:12:40.349Z,16.90
2022-08-02T02:15:13.833Z,16.80
2022-08-02T02:17:53.004Z,16.80
2022-08-02T02:20:34.756Z,16.80
2022-08-02T02:23:03.089Z,16.80
2022-08-02T02:25:36.138Z,16.70
2022-08-02T02:28:11.877Z,16.70
2022-08-02T02:30:48.385Z,16.70
2022-08-02T02:33:20.215Z,16.60
2022-08-02T02:35:52.665Z,16.60
2022-08-02T02:38:22.325Z,16.60
2022-08-02T02:40:51.425Z,16.50
2022-08-02T02:43:21.056Z,16.50
2022-08-02T02:45:51.285Z,16.50
2022-08-02T02:48:19.682Z,16.50
2022-08-02T02:50:50.007Z,16.50
2022-08-02T02:53:20.422Z,16.50
2022-08-02T02:56:01.629Z,16.40
2022-08-02T02:58:32.111Z,16.40
2022-08-02T03:01:19.826Z,16.40
2022-08-02T03:03:50.022Z,16.40
2022-08-02T03:06:18.189Z,16.30
2022-08-02T03:08:46.915Z,16.30
2022-08-02T03:11:15.562Z,16.30
2022-08-02T03:13:44.153Z,16.30
2022-08-02T03:16:14.225Z,16.30
2022-08-02T03:18:45.333Z,16.20
2022-08-02T03:21:14.855Z,16.20
2022-08-02T03:23:44.519Z,16.20
2022-08-02T03:26:12.647Z,16.20
2022-08-02T03:28:40.597Z,16.10
2022-08-02T03:31:09.228Z,16.10
2022-08-02T03:33:39.029Z,16.10
2022-08-02T03:36:12.406Z,16.10
2022-08-02T03:38:42.460Z,16.00
2022-08-02T03:41:14.813Z,16.00
2022-08-02T03:43:44.678Z,16.00
2022-08-02T03:46:16.640Z,16.00
2022-08-02T03:48:47.017Z,16.00
2022-08-02T03:51:15.357Z,15.90
2022-08-02T03:53:44.101Z,15.90
2022-08-02T03:56:13.191Z,15.90
2022-08-02T03:58:43.614Z,15.90
2022-08-02T04:01:13.719Z,15.90
2022-08-02T04:03:41.726Z,15.80
2022-08-02T04:06:11.070Z,15.80
2022-08-02T04:08:39.172Z,15.80
2022-08-02T04:11:25.505Z,15.70
2022-08-02T04:13:56.731Z,15.70
2022-08-02T04:16:38.749Z,15.70
2022-08-02T04:19:14.781Z,15.70
2022-08-02T04:21:51.126Z,15.70
2022-08-02T04:24:26.010Z,15.60
2022-08-02T04:26:57.867Z,15.60
2022-08-02T04:29:33.193Z,15.60
2022-08-02T04:32:02.560Z,15.60
2022-08-02T04:34:31.880Z,15.60
2022-08-02T04:37:02.000Z,15.60
2022-08-02T04:39:30.026Z,15.60
2022-08-02T04:41:58.126Z,15.50
2022-08-02T04:44:26.614Z,15.50
2022-08-02T04:46:55.822Z,15.50
2022-08-02T04:49:23.818Z,15.50
2022-08-02T04:51:51.799Z,15.50
2022-08-02T04:54:21.136Z,15.50
2022-08-02T04:56:49.201Z,15.50
2022-08-02T04:59:17.207Z,15.60
2022-08-02T05:01:45.160Z,15.50
2022-08-02T05:04:13.159Z,15.60
2022-08-02T05:07:08.963Z,15.60
2022-08-02T05:09:38.443Z,15.60
2022-08-02T05:12:08.406Z,15.60
2022-08-02T05:14:37.731Z,15.70
2022-08-02T05:17:05.666Z,15.70
2022-08-02T05:19:33.629Z,15.70
2022-08-02T05:22:01.650Z,15.80
2022-08-02T05:24:29.710Z,15.80
2022-08-02T05:26:58.981Z,15.80
2022-08-02T05:29:26.912Z,15.90
2022-08-02T05:31:55.297Z,15.90
2022-08-02T05:34:23.259Z,15.90
2022-08-02T05:36:51.665Z,15.90
2022-08-02T05:39:20.589Z,16.00
2022-08-02T05:41:49.234Z,16.00
2022-08-02T05:44:18.517Z,16.00
2022-08-02T05:46:46.696Z,16.10
2022-08-02T05:49:15.801Z,16.10
2022-08-02T05:51:59.198Z,16.10
2022-08-02T05:54:44.034Z,16.20
2022-08-02T05:57:26.044Z,16.20
2022-08-02T06:00:07.249Z,16.30
2022-08-02T06:02:51.279Z,16.40
2022-08-02T06:05:22.708Z,16.40
2022-08-02T06:07:51.296Z,16.50
2022-08-02T06:10:23.439Z,16.50
2022-08-02T06:13:14.431Z,16.60
2022-08-02T06:15:53.253Z,16.60
2022-08-02T06:18:28.450Z,16.80
2022-08-02T06:22:32.696Z,16.90
2022-08-02T06:23:57.793Z,17.00
2022-08-02T06:26:28.613Z,17.10
2022-08-02T06:28:59.077Z,17.20
2022-08-02T06:31:28.385Z,17.30
2022-08-02T06:33:57.552Z,17.40
2022-08-02T06:36:38.506Z,17.50
2022-08-02T06:39:23.344Z,17.60
2022-08-02T06:41:55.594Z,17.70
2022-08-02T06:47:13.883Z,17.90
2022-08-02T06:49:52.569Z,18.00
2022-08-02T06:52:28.365Z,18.10
2022-08-02T06:54:59.406Z,18.20
2022-08-02T06:57:27.762Z,18.30
2022-08-02T06:59:55.787Z,18.40
2022-08-02T07:02:25.425Z,18.50
2022-08-02T07:04:53.636Z,18.60
2022-08-02T07:07:21.892Z,18.70
2022-08-02T07:09:56.666Z,18.90
2022-08-02T07:12:31.665Z,19.00
2022-08-02T07:15:00.387Z,19.10
2022-08-02T07:17:30.259Z,19.20
2022-08-02T07:20:02.177Z,19.30
2022-08-02T07:22:31.114Z,19.50
2022-08-02T07:25:01.034Z,19.50
2022-08-02T07:27:30.111Z,19.70
2022-08-02T07:29:58.877Z,19.80
2022-08-02T07:32:33.157Z,19.80
2022-08-02T07:35:07.007Z,20.00
2022-08-02T07:37:53.151Z,20.10
2022-08-02T07:40:24.882Z,20.30
2022-08-02T07:43:03.077Z,20.40
2022-08-02T07:45:36.009Z,20.50
2022-08-02T07:48:08.418Z,20.70
2022-08-02T07:50:36.843Z,20.80
2022-08-02T07:53:05.048Z,20.90
2022-08-02T07:55:39.064Z,21.00
2022-08-02T07:58:12.781Z,21.20
2022-08-02T08:00:43.731Z,21.20
2022-08-02T08:03:19.550Z,21.40
2022-08-02T08:05:48.451Z,21.50
2022-08-02T08:08:17.652Z,21.70
2022-08-02T08:10:46.320Z,21.70
2022-08-02T08:13:14.573Z,21.90
2022-08-02T08:15:42.634Z,22.00
2022-08-02T08:18:23.154Z,22.10
2022-08-02T08:20:51.766Z,22.20
2022-08-02T08:23:20.046Z,22.20
2022-08-02T08:25:48.359Z,22.30
2022-08-02T08:28:16.455Z,22.50
2022-08-02T08:30:44.585Z,22.60
2022-08-02T08:33:14.159Z,22.70
2022-08-02T08:35:43.882Z,22.80
2022-08-02T08:38:12.242Z,23.00
2022-08-02T08:40:42.054Z,23.00
2022-08-02T08:43:10.151Z,23.00
2022-08-02T08:45:39.094Z,23.10
2022-08-02T08:48:13.754Z,23.10
2022-08-02T08:50:50.959Z,23.10
2022-08-02T08:53:22.377Z,23.20
2022-08-02T08:56:05.236Z,23.30
2022-08-02T08:58:33.417Z,23.40
2022-08-02T09:01:01.801Z,23.40
2022-08-02T09:03:33.861Z,23.60
2022-08-02T09:06:05.016Z,23.60
2022-08-02T09:08:35.303Z,23.70
2022-08-02T09:11:12.894Z,23.90
2022-08-02T09:13:52.508Z,23.90
2022-08-02T09:16:36.195Z,24.00
2022-08-02T09:19:20.345Z,24.10
2022-08-02T09:21:50.896Z,24.20
2022-08-02T09:24:21.895Z,24.20
2022-08-02T09:26:51.881Z,24.30
2022-08-02T09:29:24.262Z,24.30
2022-08-02T09:31:53.308Z,24.40
2022-08-02T09:34:22.605Z,24.60
2022-08-02T09:36:54.551Z,24.70
2022-08-02T09:39:26.330Z,24.80
2022-08-02T09:42:11.014Z,24.90
2022-08-02T09:44:39.551Z,25.00
2022-08-02T09:47:24.222Z,25.10
2022-08-02T09:50:15.190Z,25.30
2022-08-02T09:52:45.479Z,25.40
2022-08-02T09:55:43.561Z,25.50
2022-08-02T09:58:21.900Z,25.60
2022-08-02T10:00:59.016Z,25.60
2022-08-02T10:03:34.867Z,25.60
2022-08-02T10:06:04.465Z,25.60
2022-08-02T10:08:34.549Z,25.60
2022-08-02T10:11:03.514Z,25.70
2022-08-02T10:13:37.280Z,25.80
2022-08-02T10:16:08.526Z,25.90
2022-08-02T10:18:59.871Z,26.00
2022-08-02T10:21:37.999Z,26.10
2022-08-02T10:24:12.771Z,26.10
2022-08-02T10:26:46.198Z,26.20
2022-08-02T10:29:20.375Z,26.20
2022-08-02T10:32:00.126Z,26.30
2022-08-02T10:34:51.139Z,26.30
2022-08-02T10:37:32.684Z,26.40
2022-08-02T10:40:02.943Z,26.50
2022-08-02T10:42:49.049Z,26.50
2022-08-02T10:45:19.915Z,26.50
2022-08-02T10:48:03.933Z,26.50
2022-08-02T10:50:54.299Z,26.50
2022-08-02T10:53:25.064Z,26.60
2022-08-02T10:55:55.572Z,26.60
2022-08-02T10:58:29.665Z,26.70
2022-08-02T11:00:59.868Z,26.80
2022-08-02T11:03:42.279Z,26.90
2022-08-02T11:06:25.743Z,27.00
2022-08-02T11:09:32.027Z,27.10
2022-08-02T11:12:08.143Z,27.20
2022-08-02T11:14:39.234Z,27.10
2022-08-02T11:17:16.359Z,27.20
2022-08-02T11:20:18.965Z,27.20
2022-08-02T11:22:49.836Z,27.20
2022-08-02T11:26:03.360Z,27.20
2022-08-02T11:28:27.311Z,27.10
2022-08-02T11:31:00.247Z,27.20
2022-08-02T11:33:33.625Z,27.20
2022-08-02T11:36:04.564Z,27.30
2022-08-02T11:38:32.659Z,27.30
2022-08-02T11:41:09.419Z,27.40
2022-08-02T11:43:41.170Z,27.50
2022-08-02T11:46:19.754Z,27.60
2022-08-02T11:48:48.062Z,27.60
2022-08-02T11:51:20.755Z,27.70
2022-08-02T11:53:53.535Z,27.70
2022-08-02T11:56:32.659Z,27.70
2022-08-02T11:59:10.916Z,27.70
2022-08-02T12:01:52.218Z,27.70
2022-08-02T12:04:42.517Z,27.70
2022-08-02T12:07:12.471Z,27.80
2022-08-02T12:09:43.153Z,27.80
2022-08-02T12:12:20.181Z,27.90
2022-08-02T12:14:52.291Z,27.90
2022-08-02T12:17:42.414Z,27.90
2022-08-02T12:20:25.363Z,27.90
2022-08-02T12:23:17.055Z,28.00
2022-08-02T12:26:16.319Z,28.00
2022-08-02T12:28:48.955Z,28.00
2022-08-02T12:31:18.666Z,28.00
2022-08-02T12:33:50.472Z,28.00
2022-08-02T12:36:20.953Z,28.00
2022-08-02T12:39:18.434Z,28.10
2022-08-02T12:41:55.073Z,28.10
2022-08-02T12:44:23.407Z,28.20
2022-08-02T12:47:05.256Z,28.20
2022-08-02T12:49:34.274Z,28.20
2022-08-02T12:52:06.671Z,28.20
2022-08-02T12:54:41.975Z,28.20
2022-08-02T12:57:20.647Z,28.30
2022-08-02T12:59:54.476Z,28.20
2022-08-02T13:02:24.157Z,28.30
2022-08-02T13:04:52.320Z,28.20
2022-08-02T13:07:20.731Z,28.30
2022-08-02T13:09:50.096Z,28.20
2022-08-02T13:12:18.447Z,28.20
2022-08-02T13:14:46.659Z,28.20
2022-08-02T13:17:14.796Z,28.20
2022-08-02T13:19:44.328Z,28.30
2022-08-02T13:22:24.771Z,28.30
2022-08-02T13:24:57.193Z,28.40
2022-08-02T13:27:26.796Z,28.40
2022-08-02T13:29:56.718Z,28.40
2022-08-02T13:36:18.327Z,28.40
2022-08-02T13:38:46.584Z,28.50
2022-08-02T13:50:10.372Z,28.60
2022-08-02T13:52:39.925Z,28.70
2022-08-02T13:55:12.522Z,28.80
2022-08-02T13:57:41.409Z,28.90
2022-08-02T14:01:07.236Z,29.00
2022-08-02T14:04:08.508Z,29.00
2022-08-02T14:06:23.872Z,29.10
2022-08-02T14:08:54.252Z,29.20
2022-08-02T14:11:22.469Z,29.20
2022-08-02T14:13:51.311Z,29.30
2022-08-02T14:16:19.434Z,29.30
2022-08-02T14:18:47.553Z,29.50
2022-08-02T14:25:24.424Z,29.60
2022-08-02T14:27:52.489Z,29.60
2022-08-02T14:30:21.763Z,29.60
2022-08-02T14:32:49.848Z,29.70
2022-08-02T14:35:18.214Z,29.70
2022-08-02T14:37:46.569Z,29.70
2022-08-02T14:40:31.206Z,29.70
2022-08-02T14:43:01.846Z,29.80
2022-08-02T14:45:40.383Z,29.80
2022-08-02T14:48:12.153Z,29.80
2022-08-02T14:50:40.728Z,29.90
2022-08-02T14:53:26.908Z,29.90
2022-08-02T14:55:59.550Z,29.90
2022-08-02T14:58:38.924Z,30.10
2022-08-02T15:01:08.831Z,30.00
2022-08-02T15:03:43.645Z,30.00
2022-08-02T15:06:38.597Z,30.00
2022-08-02T15:09:06.837Z,30.00
2022-08-02T15:11:46.952Z,30.10
2022-08-02T15:14:22.216Z,30.10
2022-08-02T15:16:57.624Z,30.10
2022-08-02T15:19:56.038Z,30.10
2022-08-02T15:22:38.145Z,30.10
2022-08-02T15:25:14.566Z,30.10
2022-08-02T15:27:44.998Z,30.10
2022-08-02T15:30:15.198Z,30.20
2022-08-02T15:32:53.379Z,30.10
2022-08-02T15:35:22.234Z,30.20
2022-08-02T15:37:50.499Z,30.20
2022-08-02T15:40:18.769Z,30.30
2022-08-02T15:42:47.070Z,30.30
2022-08-02T15:45:17.657Z,30.40
2022-08-02T15:47:47.833Z,30.40
2022-08-02T15:50:16.696Z,30.40
2022-08-02T15:52:45.025Z,30.40
2022-08-02T15:58:26.817Z,30.50
2022-08-02T16:01:00.216Z,30.50
2022-08-02T16:03:48.840Z,30.50
2022-08-02T16:06:20.008Z,30.50
2022-08-02T16:10:01.519Z,30.50
2022-08-02T16:16:12.476Z,30.40
2022-08-02T16:18:40.510Z,30.40
2022-08-02T16:21:13.410Z,30.40
2022-08-02T16:24:01.441Z,30.50
2022-08-02T16:26:31.346Z,30.50
2022-08-02T16:29:01.225Z,30.50
2022-08-02T16:31:31.883Z,30.50
2022-08-02T16:34:00.173Z,30.60
2022-08-02T16:36:29.355Z,30.60
2022-08-02T16:38:58.227Z,30.60
2022-08-02T16:41:51.830Z,30.60
2022-08-02T16:44:15.186Z,30.60
2022-08-02T16:46:47.179Z,30.70
2022-08-02T16:50:04.866Z,30.70
2022-08-02T16:52:07.330Z,30.70
2022-08-02T16:54:38.446Z,30.80
2022-08-02T16:57:07.475Z,30.80
2022-08-02T16:59:41.412Z,30.70
2022-08-02T17:02:18.475Z,30.80
2022-08-02T17:04:48.430Z,30.70
2022-08-02T17:08:08.157Z,30.60
2022-08-02T17:10:09.201Z,30.60
2022-08-02T17:12:38.924Z,30.60
2022-08-02T17:16:01.089Z,30.60
2022-08-02T17:17:58.360Z,30.60
2022-08-02T17:20:26.470Z,30.60
2022-08-02T17:22:54.727Z,30.60
2022-08-02T17:25:24.827Z,30.60
2022-08-02T17:27:56.035Z,30.60
2022-08-02T17:30:26.997Z,30.60
2022-08-02T17:32:57.490Z,30.60
2022-08-02T17:35:39.988Z,30.60
2022-08-02T17:38:11.955Z,30.50
2022-08-02T17:40:48.682Z,30.50
2022-08-02T17:43:18.182Z,30.40
2022-08-02T17:46:00.958Z,30.40
2022-08-02T17:48:55.322Z,30.30
2022-08-02T17:52:15.514Z,30.30
2022-08-02T17:54:14.884Z,30.20
2022-08-02T17:56:48.081Z,30.20
2022-08-02T17:59:20.228Z,30.10
2022-08-02T18:01:53.016Z,30.10
2022-08-02T18:04:27.558Z,30.00
2022-08-02T18:07:04.192Z,30.00
2022-08-02T18:09:34.602Z,29.90
2022-08-02T18:12:02.728Z,29.80
2022-08-02T18:14:30.697Z,29.80
2022-08-02T18:16:58.858Z,29.80
2022-08-02T18:19:42.629Z,29.70
2022-08-02T18:22:16.860Z,29.70
2022-08-02T18:24:45.519Z,29.70
2022-08-02T18:27:18.292Z,29.70
2022-08-02T18:29:48.544Z,29.60
2022-08-02T18:33:53.951Z,29.60
2022-08-02T18:35:19.103Z,29.60
2022-08-02T18:37:57.023Z,29.50
2022-08-02T18:40:31.183Z,29.50
2022-08-02T18:43:03.483Z,29.40
2022-08-02T18:45:49.544Z,29.40
2022-08-02T18:48:23.721Z,29.30
2022-08-02T18:50:57.930Z,29.30
2022-08-02T18:53:28.230Z,29.20
2022-08-02T18:56:20.071Z,29.20
2022-08-02T18:58:53.134Z,29.10
2022-08-02T19:01:32.469Z,29.10
2022-08-02T19:04:04.329Z,29.10
2022-08-02T19:06:33.121Z,29.00
2022-08-02T19:09:11.407Z,28.90
2022-08-02T19:11:47.564Z,28.90
2022-08-02T19:14:30.957Z,28.80
2022-08-02T19:17:00.495Z,28.80
2022-08-02T19:19:44.423Z,28.80
2022-08-02T19:22:18.710Z,28.80
2022-08-02T19:24:51.636Z,28.70
2022-08-02T19:27:25.664Z,28.70
2022-08-02T19:29:55.020Z,28.60
2022-08-02T19:32:42.157Z,28.60
2022-08-02T19:35:19.365Z,28.50
2022-08-02T19:38:07.648Z,28.50
2022-08-02T19:40:41.657Z,28.40
2022-08-02T19:44:24.508Z,28.30
2022-08-02T19:45:59.294Z,28.30
2022-08-02T19:48:28.069Z,28.20
2022-08-02T19:51:01.063Z,28.10
2022-08-02T19:53:47.460Z,28.10
2022-08-02T19:56:25.042Z,28.00
2022-08-02T19:58:54.889Z,28.00
2022-08-02T20:01:36.571Z,27.90
2022-08-02T20:04:06.990Z,27.90
2022-08-02T20:06:35.365Z,27.80
2022-08-02T20:09:04.082Z,27.70
2022-08-02T20:11:34.726Z,27.60
2022-08-02T20:14:04.863Z,27.40
2022-08-02T20:16:33.384Z,27.30
2022-08-02T20:19:03.396Z,27.10
2022-08-02T20:21:35.919Z,27.00
2022-08-02T20:24:09.165Z,27.00
2022-08-02T20:26:47.705Z,26.90
2022-08-02T20:29:43.416Z,26.80
2022-08-02T20:32:07.889Z,26.70
2022-08-02T20:34:36.781Z,26.60
2022-08-02T20:37:59.089Z,26.50
2022-08-02T20:39:53.961Z,26.50
2022-08-02T20:42:24.640Z,26.40
2022-08-02T20:44:55.059Z,26.40
2022-08-02T20:47:38.880Z,26.30
2022-08-02T20:50:31.396Z,26.20
2022-08-02T20:53:00.639Z,26.10
2022-08-02T20:55:31.245Z,26.00
2022-08-02T20:58:02.684Z,25.90
2022-08-02T21:00:31.687Z,25.90
2022-08-02T21:03:00.439Z,25.80
2022-08-02T21:05:54.318Z,25.80
2022-08-02T21:08:20.310Z,25.70
2022-08-02T21:10:52.732Z,25.60
2022-08-02T21:13:24.397Z,25.50
2022-08-02T21:15:57.007Z,25.50
2022-08-02T21:18:35.909Z,25.40
2022-08-02T21:21:09.129Z,25.30
2022-08-02T21:23:37.566Z,25.30
2022-08-02T21:26:06.709Z,25.30
2022-08-02T21:28:45.088Z,25.20
2022-08-02T21:34:03.702Z,25.00
2022-08-02T21:36:50.693Z,25.00
2022-08-02T21:39:20.393Z,24.90
2022-08-02T21:41:49.114Z,24.80
2022-08-02T21:44:20.800Z,24.80
2022-08-02T21:46:51.147Z,24.80
2022-08-02T21:49:20.683Z,24.70
2022-08-02T21:51:50.308Z,24.60
2022-08-02T21:54:21.223Z,24.60
2022-08-02T21:56:52.758Z,24.60
2022-08-02T21:59:41.735Z,24.50
2022-08-02T22:02:14.028Z,24.40
2022-08-02T22:04:47.485Z,24.40
2022-08-02T22:07:24.038Z,24.40
2022-08-02T22:09:52.886Z,24.30
2022-08-02T22:12:21.914Z,24.30
2022-08-02T22:14:56.537Z,24.30
2022-08-02T22:17:50.737Z,24.20
2022-08-02T22:20:18.378Z,24.10
2022-08-02T22:22:50.765Z,24.00
2022-08-02T22:25:26.546Z,24.00
2022-08-02T22:28:35.977Z,23.90
2022-08-02T22:34:01.845Z,23.80
2022-08-02T22:36:34.048Z,23.80
2022-08-02T22:39:04.646Z,23.70
2022-08-02T22:42:05.899Z,23.70
2022-08-02T22:44:36.553Z,23.60
2022-08-02T22:47:14.443Z,23.50
2022-08-02T22:49:54.531Z,23.40
2022-08-02T22:52:24.518Z,23.30
2022-08-02T22:54:52.532Z,23.20
2022-08-02T22:57:30.836Z,23.10
2022-08-02T22:59:02.910Z,25.10
2022-08-02T22:59:04.977Z,23.90
2022-08-02T23:00:00.402Z,23.00
2022-08-02T23:02:30.298Z,23.00
2022-08-02T23:04:58.605Z,23.00
2022-08-02T23:07:26.774Z,22.90
2022-08-02T23:09:54.799Z,22.90
2022-08-02T23:12:23.205Z,22.90
2022-08-02T23:14:53.425Z,22.90
2022-08-02T23:17:39.540Z,22.90
2022-08-02T23:20:11.707Z,22.90
2022-08-02T23:22:39.921Z,22.90
2022-08-02T23:25:09.407Z,22.90
2022-08-02T23:27:37.591Z,22.80
2022-08-02T23:30:08.064Z,22.80
2022-08-02T23:32:36.001Z,22.70
2022-08-02T23:35:05.877Z,22.70
2022-08-02T23:37:59.759Z,22.60
2022-08-02T23:40:39.394Z,22.60
2022-08-02T23:43:13.432Z,22.50
2022-08-02T23:45:44.843Z,22.50
2022-08-02T23:48:12.798Z,22.40
2022-08-02T23:50:41.017Z,22.40
2022-08-02T23:53:10.302Z,22.40
2022-08-02T23:55:38.243Z,22.30
2022-08-02T23:58:06.180Z,22.20
